28 mai 2022

Temps Code Temps Temp. Vue Base cloud Vent METAR/SPECI
6:00 pm
V
68 °F 6¼ mi+ - 030° 030° 11 kt METAR LFRV 281600Z AUTO 03011KT 360V060 CAVOK 20/05 Q1020
5:30 pm
V
70 °F 6¼ mi+ - 030° 030° 12 kt METAR LFRV 281530Z AUTO 03012KT 360V070 CAVOK 21/07 Q1020
5:00 pm
V
70 °F 6¼ mi+ - 010° 010° 12 kt METAR LFRV 281500Z AUTO 01012KT 340V040 CAVOK 21/09 Q1021
4:30 pm
V
70 °F 6¼ mi+ - 010° 010° 12 kt METAR LFRV 281430Z AUTO 01012KT 340V060 CAVOK 21/08 Q1021
4:00 pm
V
70 °F 6¼ mi+ - 020° 020° 11 kt METAR LFRV 281400Z AUTO 02011KT 340V050 CAVOK 21/09 Q1021
3:30 pm
V
70 °F 6¼ mi+ - 030° 030° 10 kt METAR LFRV 281330Z AUTO 03010KT 340V070 CAVOK 21/09 Q1021
3:00 pm
V
70 °F 6¼ mi+ - 030° 030° 10 kt METAR LFRV 281300Z AUTO 03010KT 350V060 CAVOK 21/10 Q1021
2:30 pm
V
70 °F 6¼ mi+ - 020° 020° 10 kt METAR LFRV 281230Z AUTO 02010KT 340V070 CAVOK 21/08 Q1022
2:00 pm
V
70 °F 6¼ mi+ - 040° 040° 9 kt METAR LFRV 281200Z AUTO 04009KT 010V090 CAVOK 21/10 Q1022
1:30 pm
V
68 °F 6¼ mi+ - 030° 030° 11 kt METAR LFRV 281130Z AUTO 03011KT CAVOK 20/09 Q1022
1:00 pm
V
68 °F 6¼ mi+ - 030° 030° 10 kt METAR LFRV 281100Z AUTO 03010KT 350V070 CAVOK 20/08 Q1023
12:30 pm
V
66 °F 6¼ mi+ - 050° 050° 13 kt METAR LFRV 281030Z AUTO 05013KT 010V080 CAVOK 19/09 Q1023
12:00 pm
V
66 °F 6¼ mi+ - 060° 060° 11 kt METAR LFRV 281000Z AUTO 06011KT CAVOK 19/10 Q1023
11:30 am
V
64 °F 6¼ mi+ - 060° 060° 11 kt METAR LFRV 280930Z AUTO 06011KT 020V090 CAVOK 18/10 Q1023
11:00 am
V
64 °F 6¼ mi+ - 060° 060° 11 kt METAR LFRV 280900Z AUTO 06011KT CAVOK 18/12 Q1023
10:30 am
V
63 °F 6¼ mi+ - 040° 040° 12 kt METAR LFRV 280830Z AUTO 04012KT CAVOK 17/10 Q1024
10:00 am
V
61 °F 6¼ mi+ - 050° 050° 11 kt METAR LFRV 280800Z AUTO 05011KT CAVOK 16/10 Q1024
9:30 am
V
59 °F 6¼ mi+ - 040° 040° 10 kt METAR LFRV 280730Z AUTO 04010KT CAVOK 15/11 Q1024
9:00 am
V
57 °F 6¼ mi+ - 030° 030° 10 kt METAR LFRV 280700Z AUTO 03010KT CAVOK 14/11 Q1024
8:30 am
V
55 °F 6¼ mi+ - 030° 030° 10 kt METAR LFRV 280630Z AUTO 03010KT CAVOK 13/10 Q1024
8:00 am
V
54 °F 6¼ mi+ - 040° 040° 8 kt METAR LFRV 280600Z AUTO 04008KT CAVOK 12/10 Q1024
7:30 am
V
50 °F 6¼ mi+ - 030° 030° 7 kt METAR LFRV 280530Z AUTO 03007KT 360V070 CAVOK 10/09 Q1024
7:00 am
V
48 °F 6¼ mi+ - 040° 040° 3 kt METAR LFRV 280500Z AUTO 04003KT 360V070 CAVOK 09/08 Q1024
6:30 am
V
48 °F 6¼ mi+ - Var Var 2 kt METAR LFRV 280430Z AUTO VRB02KT CAVOK 09/07 Q1024
6:00 am
V
48 °F 6¼ mi+ - 030° 030° 4 kt METAR LFRV 280400Z AUTO 03004KT 340V070 CAVOK 09/08 Q1024
5:30 am
V
48 °F 6¼ mi+ - 040° 040° 5 kt METAR LFRV 280330Z AUTO 04005KT CAVOK 09/08 Q1024
5:00 am
V
48 °F 6¼ mi+ - 030° 030° 7 kt METAR LFRV 280300Z AUTO 03007KT 010V070 CAVOK 09/08 Q1024
4:30 am
V
48 °F 6¼ mi+ - 020° 020° 8 kt METAR LFRV 280230Z AUTO 02008KT CAVOK 09/08 Q1024
4:00 am
V
48 °F 6¼ mi+ - 020° 020° 7 kt METAR LFRV 280200Z AUTO 02007KT CAVOK 09/08 Q1024
3:30 am
V
48 °F 6¼ mi+ - 020° 020° 7 kt METAR LFRV 280130Z AUTO 02007KT CAVOK 09/08 Q1025
3:00 am
V
48 °F 6¼ mi+ - 030° 030° 6 kt METAR LFRV 280100Z AUTO 03006KT CAVOK 09/08 Q1025
2:30 am
V
50 °F 6¼ mi+ - 010° 010° 6 kt METAR LFRV 280030Z AUTO 01006KT CAVOK 10/09 Q1025
2:00 am
V
50 °F 6¼ mi+ - 010° 010° 5 kt METAR LFRV 280000Z AUTO 01005KT CAVOK 10/09 Q1026
1:30 am
V
50 °F 6¼ mi+ - 040° 040° 4 kt METAR LFRV 272330Z AUTO 04004KT 350V070 CAVOK 10/08 Q1026
1:00 am
V
52 °F 6¼ mi+ - 030° 030° 6 kt METAR LFRV 272300Z AUTO 03006KT CAVOK 11/08 Q1026
12:30 am
V
52 °F 6¼ mi+ - 020° 020° 7 kt METAR LFRV 272230Z AUTO 02007KT CAVOK 11/09 Q1026
12:00 am
V
54 °F 6¼ mi+ - 040° 040° 8 kt METAR LFRV 272200Z AUTO 04008KT CAVOK 12/10 Q1026

27 mai 2022

Temps Code Temps Temp. Vue Base cloud Vent METAR/SPECI
11:30 pm
V
55 °F 6¼ mi+ - 030° 030° 9 kt METAR LFRV 272130Z AUTO 03009KT CAVOK 13/10 Q1026
11:00 pm
V
57 °F 6¼ mi+ - 030° 030° 8 kt METAR LFRV 272100Z AUTO 03008KT CAVOK 14/12 Q1026
10:30 pm
V
57 °F 6¼ mi+ - 030° 030° 5 kt METAR LFRV 272030Z AUTO 03005KT CAVOK 14/12 Q1026
10:00 pm
V
59 °F 6¼ mi+ - 030° 030° 5 kt METAR LFRV 272000Z AUTO 03005KT 9999 FEW028 15/12 Q1026
9:30 pm
V
61 °F 6¼ mi+ 3.200 ft 030° 030° 4 kt METAR LFRV 271930Z AUTO 03004KT 9999 SCT026 BKN032 16/13 Q1026
9:00 pm
V
63 °F 6¼ mi+ - 360° 360° 2 kt METAR LFRV 271900Z AUTO 36002KT CAVOK 17/14 Q1026
8:30 pm
V
64 °F 6¼ mi+ - 020° 020° 2 kt METAR LFRV 271830Z AUTO 02002KT 9999 SCT038 18/14 Q1026
8:00 pm
V
64 °F 6¼ mi+ - 020° 020° 3 kt METAR LFRV 271800Z AUTO 02003KT 300V070 9999 FEW021 SCT041 18/14 Q1026
7:30 pm
V
64 °F 6¼ mi+ 3.300 ft Var Var 3 kt METAR LFRV 271730Z AUTO VRB03KT 9999 SCT021 SCT028 BKN033 18/14 Q1026
7:00 pm
M
63 °F 6¼ mi+ 1.800 ft Var Var 3 kt METAR LFRV 271700Z AUTO VRB03KT 9999 BKN018 BKN024 OVC041 17/15 Q1026
6:30 pm
M
64 °F 6¼ mi+ 2.400 ft Var Var 3 kt METAR LFRV 271630Z AUTO VRB03KT 9999 BKN024 BKN033 OVC039 18/14 Q1026
6:00 pm
M
63 °F 6¼ mi+ 1.700 ft Var Var 2 kt METAR LFRV 271600Z AUTO VRB02KT 9999 BKN017 OVC022 17/14 Q1026
5:30 pm
M
63 °F 6¼ mi+ 2.300 ft 170° 170° 4 kt METAR LFRV 271530Z AUTO 17004KT 9999 OVC023 17/14 Q1026
5:00 pm
M
64 °F 6¼ mi+ 2.500 ft 350° 350° 4 kt METAR LFRV 271500Z AUTO 35004KT 310V020 9999 OVC025 18/13 Q1027
4:30 pm
M
64 °F 6¼ mi+ 2.400 ft Var Var 2 kt METAR LFRV 271430Z AUTO VRB02KT 9999 OVC024 18/13 Q1027
4:00 pm
M
64 °F 6¼ mi+ 2.500 ft 320° 320° 4 kt METAR LFRV 271400Z AUTO 32004KT 280V010 9999 BKN025 OVC032 18/13 Q1027
3:30 pm
M
66 °F 6¼ mi+ 2.600 ft Var Var 1 kt METAR LFRV 271330Z AUTO VRB01KT 9999 BKN026 OVC035 19/13 Q1027
3:00 pm
M
64 °F 6¼ mi+ 2.500 ft 010° 010° 5 kt METAR LFRV 271300Z AUTO 01005KT 340V050 9999 BKN025 OVC034 18/13 Q1027
2:30 pm
V
64 °F 6¼ mi+ 3.200 ft Var Var 2 kt METAR LFRV 271230Z AUTO VRB02KT 9999 FEW025 OVC032 18/13 Q1027
2:00 pm
M
64 °F 6¼ mi+ 2.400 ft 340° 340° 4 kt METAR LFRV 271200Z AUTO 34004KT 290V020 9999 BKN024 BKN029 OVC034 18/12 Q1027
1:30 pm
V
64 °F 6¼ mi+ 3.000 ft Var Var 3 kt METAR LFRV 271130Z AUTO VRB03KT 9999 SCT022 BKN030 OVC035 18/14 Q1027
1:00 pm
M
63 °F 6¼ mi+ 2.900 ft 030° 030° 4 kt METAR LFRV 271100Z AUTO 03004KT 330V090 9999 FEW022 OVC029 17/12 Q1028
12:30 pm
M
63 °F 6¼ mi+ 1.800 ft 330° 330° 5 kt METAR LFRV 271030Z AUTO 33005KT 290V010 9999 BKN018 OVC025 17/13 Q1028
12:00 pm
M
63 °F 6¼ mi+ 1.900 ft 360° 360° 3 kt METAR LFRV 271000Z AUTO 36003KT 290V050 9999 BKN019 OVC026 17/12 Q1028
11:30 am
M
63 °F 6¼ mi+ 1.800 ft Var Var 3 kt METAR LFRV 270930Z AUTO VRB03KT 9999 BKN018 OVC026 17/13 Q1028
11:00 am
M
61 °F 6¼ mi+ 1.400 ft Var Var 3 kt METAR LFRV 270900Z AUTO VRB03KT 9999 BKN014 OVC024 16/12 Q1028
10:30 am
M
59 °F 6¼ mi+ 1.200 ft 330° 330° 4 kt METAR LFRV 270830Z AUTO 33004KT 270V020 9999 OVC012 15/12 Q1028
10:00 am
M
57 °F 6¼ mi+ 2.400 ft 360° 360° 3 kt METAR LFRV 270800Z AUTO 36003KT 290V070 9999 SCT011 OVC024 14/12 Q1028
9:30 am
M
57 °F 6¼ mi+ 2.300 ft 350° 350° 4 kt METAR LFRV 270730Z AUTO 35004KT 330V030 9999 FEW012 OVC023 14/11 Q1028
9:00 am
M
55 °F 6¼ mi+ 1.300 ft Var Var 2 kt METAR LFRV 270700Z AUTO VRB02KT 9999 BKN013 OVC023 13/11 Q1028
8:30 am
M
55 °F 6¼ mi+ 1.200 ft Var Var 2 kt METAR LFRV 270630Z AUTO VRB02KT 9999 OVC012 13/11 Q1028
8:00 am
M
54 °F 6¼ mi+ 1.200 ft 360° 360° 3 kt METAR LFRV 270600Z AUTO 36003KT 9999 BKN012 BKN024 BKN041 12/10 Q1028
7:30 am
V
52 °F 6¼ mi+ - 010° 010° 5 kt METAR LFRV 270530Z AUTO 01005KT 9999 FEW039 11/10 Q1028
7:00 am
V
50 °F 6¼ mi+ - 360° 360° 5 kt METAR LFRV 270500Z AUTO 36005KT CAVOK 10/09 Q1027
6:30 am
V
48 °F 6¼ mi+ - 350° 350° 5 kt METAR LFRV 270430Z AUTO 35005KT CAVOK 09/09 Q1027
6:00 am
V
48 °F 6¼ mi+ - 350° 350° 4 kt METAR LFRV 270400Z AUTO 35004KT CAVOK 09/08 Q1027
5:30 am
V
48 °F 6¼ mi+ - 350° 350° 4 kt METAR LFRV 270330Z AUTO 35004KT CAVOK 09/09 Q1027
5:00 am
V
50 °F 6¼ mi+ - 350° 350° 5 kt METAR LFRV 270300Z AUTO 35005KT CAVOK 10/09 Q1027
4:30 am
V
50 °F 6¼ mi+ - 340° 340° 7 kt METAR LFRV 270230Z AUTO 34007KT CAVOK 10/09 Q1027
4:00 am
V
50 °F 6¼ mi+ - 340° 340° 6 kt METAR LFRV 270200Z AUTO 34006KT CAVOK 10/09 Q1027
3:30 am
V
52 °F 6¼ mi+ - 340° 340° 7 kt METAR LFRV 270130Z AUTO 34007KT CAVOK 11/09 Q1027
3:00 am
V
52 °F 6¼ mi+ - 340° 340° 7 kt METAR LFRV 270100Z AUTO 34007KT CAVOK 11/10 Q1027
2:30 am
V
52 °F 6¼ mi+ - 330° 330° 5 kt METAR LFRV 270030Z AUTO 33005KT CAVOK 11/10 Q1027
2:00 am
V
52 °F 6¼ mi+ - 330° 330° 6 kt METAR LFRV 270000Z AUTO 33006KT CAVOK 11/10 Q1028
1:30 am
V
52 °F 6¼ mi+ - 320° 320° 4 kt METAR LFRV 262330Z AUTO 32004KT CAVOK 11/10 Q1028
1:00 am
V
52 °F 6¼ mi+ - 300° 300° 5 kt METAR LFRV 262300Z AUTO 30005KT CAVOK 11/10 Q1028
12:30 am
V
54 °F 6¼ mi+ - 300° 300° 5 kt METAR LFRV 262230Z AUTO 30005KT CAVOK 12/11 Q1028
12:00 am
V
55 °F 6¼ mi+ - Var Var 3 kt METAR LFRV 262200Z AUTO VRB03KT 9999 SCT029 13/11 Q1028

26 mai 2022

Temps Code Temps Temp. Vue Base cloud Vent METAR/SPECI
11:30 pm
V
57 °F 6¼ mi+ 3.000 ft 280° 280° 4 kt METAR LFRV 262130Z AUTO 28004KT 9999 OVC030 14/12 Q1028
11:00 pm
V
55 °F 6¼ mi+ 3.000 ft 280° 280° 4 kt METAR LFRV 262100Z AUTO 28004KT 9999 BKN030 13/11 Q1028
10:30 pm
V
57 °F 6¼ mi+ - 270° 270° 4 kt METAR LFRV 262030Z AUTO 27004KT 9999 FEW030 14/12 Q1028
10:00 pm
M
57 °F 6¼ mi+ 2.900 ft 260° 260° 3 kt METAR LFRV 262000Z AUTO 26003KT 9999 BKN029 14/12 Q1027
9:30 pm
V
59 °F 6¼ mi+ - 270° 270° 4 kt METAR LFRV 261930Z AUTO 27004KT CAVOK 15/12 Q1027
9:00 pm
V
61 °F 6¼ mi+ 3.100 ft 270° 270° 5 kt METAR LFRV 261900Z AUTO 27005KT 9999 BKN031 16/12 Q1027
8:30 pm
V
61 °F 6¼ mi+ 3.000 ft 250° 250° 6 kt METAR LFRV 261830Z AUTO 25006KT 220V290 9999 OVC030 16/12 Q1027
8:00 pm
V
61 °F 6¼ mi+ 3.100 ft 270° 270° 5 kt METAR LFRV 261800Z AUTO 27005KT 220V310 9999 FEW018 OVC031 16/12 Q1027
7:30 pm
M
61 °F 6¼ mi+ 1.900 ft 270° 270° 6 kt METAR LFRV 261730Z AUTO 27006KT 240V310 9999 BKN019 BKN024 OVC032 16/12 Q1027
7:00 pm
M
63 °F 6¼ mi+ 2.900 ft 280° 280° 5 kt METAR LFRV 261700Z AUTO 28005KT 240V320 9999 FEW021 OVC029 17/13 Q1027
6:30 pm
M
61 °F 6¼ mi+ 2.400 ft 270° 270° 5 kt METAR LFRV 261630Z AUTO 27005KT 220V330 9999 FEW018 OVC024 16/13 Q1027
6:00 pm
M
61 °F 6¼ mi+ 2.100 ft 270° 270° 5 kt METAR LFRV 261600Z AUTO 27005KT 240V310 9999 OVC021 16/12 Q1027
5:30 pm
M
63 °F 6¼ mi+ 2.100 ft 240° 240° 4 kt METAR LFRV 261530Z AUTO 24004KT 180V300 9999 OVC021 17/12 Q1027
5:00 pm
M
63 °F 6¼ mi+ 2.300 ft 220° 220° 4 kt METAR LFRV 261500Z AUTO 22004KT 140V270 9999 OVC023 17/12 Q1028
Données plus anciennes

Télécharge notre application

Un accès facile à toute la météo aéronautique sur ton téléphone portable et ta tablette.
Avec de nombreuses fonctionnalités non disponibles sur le site Web, comme la prise en charge hors ligne et une liste personnelle d'aéroports.

Nous et des tiers suivons ton comportement sur Internet sur notre site Web à l'aide de cookies. Si tu continues, nous supposons que tu acceptes notre politique en matière de cookies. Apprendre plus